Pilot Vessel Akarana — ZMT2938 — position and weather

sailwx.info

Track history (hours):
 
Tides and Currents Weather Stations Pressure Air Temp Water Temp Dewpoint Dewpoint Depression Visibility Wind Speed Wind Dir Waves Ship Positions

Pilot Vessel Akarana

Last reported at 2015-May-27 10:19 UTC. Time now 2015-May-27 19:52 UTC.
Position S 36°51' E 174°47'.

Length 15 m; draft 1.6 m.

Type: Pilot. MMSI: 512000344.

Date/timePositionNaut miles runAvg speedWind from/ knotsBaromVisibWave heightAir tempDewpointWater temp
2015-May-27 10:19S 36°51' E 174°47'0 0.0
2015-May-27 09:33S 36°51' E 174°47'0 0.0
2015-May-27 08:33S 36°51' E 174°47'0 0.0
2015-May-27 07:32S 36°51' E 174°47'0 0.0
2015-May-27 06:33S 36°51' E 174°47'0 0.0
2015-May-27 05:34S 36°51' E 174°47'0 0.0
2015-May-27 04:33S 36°51' E 174°47'0 0.0
2015-May-27 03:33S 36°51' E 174°47'0 0.0
2015-May-27 02:30S 36°51' E 174°47'0 0.0
2015-May-27 01:27S 36°51' E 174°47'0 0.0
2015-May-27 00:15S 36°51' E 174°47'0 0.0
2015-May-26 23:33S 36°51' E 174°47'0 0.0
2015-May-26 22:33S 36°51' E 174°47'0 0.0
2015-May-26 21:30S 36°51' E 174°47'0 0.0
2015-May-26 20:32S 36°51' E 174°47'0 0.0
2015-May-26 19:33S 36°51' E 174°47'0 0.0
2015-May-26 18:30S 36°51' E 174°47'0 0.0
2015-May-26 17:33S 36°51' E 174°47'0 0.0
2015-May-26 16:32S 36°51' E 174°47'0 0.0
2015-May-26 15:33S 36°51' E 174°47'0 0.0
2015-May-26 14:26S 36°51' E 174°47'0 0.0
2015-May-26 13:10S 36°51' E 174°47'4 6.3
2015-May-26 12:34S 36°47' E 174°49'1 0.6
2015-May-26 11:34S 36°47' E 174°49'1 0.7
2015-May-26 10:30S 36°47' E 174°48'1 1.4
2015-May-26 09:33S 36°46' E 174°49'5 4.6
2015-May-26 08:25S 36°51' E 174°47'0 0.0
2015-May-26 07:19S 36°51' E 174°47'0 0.0
2015-May-26 06:33S 36°51' E 174°47'0 0.0
2015-May-26 05:16S 36°51' E 174°47'0 0.0
2015-May-26 04:09S 36°51' E 174°47'4 5.3
2015-May-26 03:28S 36°47' E 174°49'4 4.1
2015-May-26 02:33S 36°51' E 174°47'4 4.1
2015-May-26 01:33S 36°47' E 174°48'1 1.4
2015-May-26 00:33S 36°48' E 174°48'3 2.8
2015-May-25 23:33S 36°51' E 174°47'0 0.0
2015-May-25 22:33S 36°51' E 174°47'1 1.0
2015-May-25 21:19S 36°51' E 174°48'1 0.6
2015-May-25 19:15S 36°51' E 174°47'0 0.0
2015-May-25 18:05S 36°51' E 174°47'0 0.0
2015-May-25 17:25S 36°51' E 174°47'0 0.0
2015-May-25 13:18S 36°51' E 174°47'0 0.0
2015-May-25 11:22S 36°51' E 174°47'0 0.0
2015-May-25 10:22S 36°51' E 174°47'4 2.0
2015-May-25 08:32S 36°47' E 174°49'0 0.2
2015-May-25 06:18S 36°48' E 174°48'1 0.3
2015-May-25 02:21S 36°48' E 174°50'3 1.1
2015-May-24 23:32S 36°51' E 174°47'0 0.0
2015-May-24 22:33S 36°51' E 174°47'0 0.0
2015-May-24 21:30S 36°51' E 174°47'0 0.0
2015-May-24 20:33S 36°51' E 174°47'8 7.9
2015-May-24 19:34S 36°44' E 174°51'3 3.3
2015-May-24 18:34S 36°47' E 174°49'5 4.5
2015-May-24 17:34S 36°51' E 174°47'4 0.7
2015-May-24 11:33S 36°46' E 174°49'4 4.4
2015-May-24 10:33S 36°51' E 174°47'0 0.0
2015-May-24 09:33S 36°51' E 174°47'0 0.0
2015-May-23 20:19S 36°50' E 174°47'0 0.1
2015-May-23 17:26S 36°51' E 174°47'1 0.1
2015-May-23 09:34S 36°50' E 174°48'6 5.9
2015-May-23 08:33S 36°45' E 174°50'1 1.1
2015-May-23 07:33S 36°44' E 174°50'8 7.0
2015-May-23 06:28S 36°51' E 174°47'5 0.5
2015-May-22 20:17S 36°46' E 174°49'0 0.1
2015-May-22 13:33S 36°46' E 174°49'1 0.6
2015-May-22 12:31S 36°46' E 174°50'2 0.9
2015-May-22 10:33S 36°48' E 174°49'1 1.4
2015-May-22 09:33S 36°49' E 174°49'3 2.5
2015-May-22 08:31S 36°51' E 174°47'0 0.0
2015-May-21 16:15S 36°51' E 174°47'0 0.0
2015-May-21 11:11S 36°51' E 174°47'2 3.4
2015-May-21 10:33S 36°50' E 174°49'2 2.1
2015-May-21 09:33S 36°51' E 174°47'0 0.0
2015-May-21 08:21S 36°51' E 174°47'0 0.3
2015-May-21 07:28S 36°50' E 174°47'0 0.0
2015-May-20 13:32S 36°51' E 174°47'0 0.0
2015-May-20 11:33S 36°51' E 174°47'0 0.0
2015-May-20 10:30S 36°51' E 174°47'0 0.0
2015-May-20 09:33S 36°51' E 174°47'0 0.0
2015-May-20 06:22S 36°51' E 174°47'0 0.0
2015-May-20 03:33S 36°51' E 174°47'0 0.0
2015-May-20 02:30S 36°51' E 174°47'0 0.0
2015-May-20 00:32S 36°51' E 174°47'0 0.0
2015-May-19 19:10S 36°51' E 174°47'3 1.1
2015-May-19 16:33S 36°48' E 174°49'2 0.2
2015-May-19 06:31S 36°46' E 174°49'5 4.4
2015-May-19 05:28S 36°51' E 174°47'5 2.5
2015-May-19 03:33S 36°46' E 174°49'5 2.3
2015-May-19 01:27S 36°51' E 174°47'0 0.0
2015-May-18 23:20S 36°51' E 174°47'0 0.0
2015-May-18 21:04S 36°51' E 174°47'0 0.1
2015-May-18 19:33S 36°51' E 174°47'0 0.0
2015-May-18 18:18S 36°51' E 174°47'5 7.4
2015-May-18 17:33S 36°46' E 174°50'5 1.0
2015-May-18 12:05S 36°51' E 174°47'3 5.6
2015-May-18 11:34S 36°48' E 174°49'3 2.1
2015-May-18 10:06S 36°51' E 174°47'1 1.4
2015-May-18 09:34S 36°50' E 174°48'3 2.8
2015-May-18 08:34S 36°48' E 174°49'3 3.3
2015-May-18 07:30S 36°51' E 174°47'2 2.4
2015-May-18 06:33S 36°49' E 174°49'2 1.8
2015-May-18 05:34S 36°47' E 174°49'3 0.8
2015-May-18 01:25S 36°50' E 174°47'0 0.0
2015-May-17 18:22S 36°51' E 174°47'0 0.0
2015-May-17 14:32S 36°51' E 174°47'0 0.0
2015-May-17 13:18S 36°51' E 174°47'0 0.0
2015-May-17 12:33S 36°51' E 174°47'0 0.0
2015-May-17 11:33S 36°51' E 174°47'0 0.0
2015-May-17 10:33S 36°51' E 174°47'  
Track history (hours):
 
Tides and Currents Weather Stations Pressure Air Temp Water Temp Dewpoint Dewpoint Depression Visibility Wind Speed Wind Dir Waves Ship Positions

Pilot Vessel Akarana

Last reported at 2015-May-27 10:19 UTC. Time now 2015-May-27 19:52 UTC.
Position S 36°51' E 174°47'.

Length 15 m; draft 1.6 m.

Type: Pilot. MMSI: 512000344.

Date/timePositionNaut miles runAvg speedWind from/ knotsBaromVisibWave heightAir tempDewpointWater temp
2015-May-27 10:19S 36°51' E 174°47'0 0.0
2015-May-27 09:33S 36°51' E 174°47'0 0.0
2015-May-27 08:33S 36°51' E 174°47'0 0.0
2015-May-27 07:32S 36°51' E 174°47'0 0.0
2015-May-27 06:33S 36°51' E 174°47'0 0.0
2015-May-27 05:34S 36°51' E 174°47'0 0.0
2015-May-27 04:33S 36°51' E 174°47'0 0.0
2015-May-27 03:33S 36°51' E 174°47'0 0.0
2015-May-27 02:30S 36°51' E 174°47'0 0.0
2015-May-27 01:27S 36°51' E 174°47'0 0.0
2015-May-27 00:15S 36°51' E 174°47'0 0.0
2015-May-26 23:33S 36°51' E 174°47'0 0.0
2015-May-26 22:33S 36°51' E 174°47'0 0.0
2015-May-26 21:30S 36°51' E 174°47'0 0.0
2015-May-26 20:32S 36°51' E 174°47'0 0.0
2015-May-26 19:33S 36°51' E 174°47'0 0.0
2015-May-26 18:30S 36°51' E 174°47'0 0.0
2015-May-26 17:33S 36°51' E 174°47'0 0.0
2015-May-26 16:32S 36°51' E 174°47'0 0.0
2015-May-26 15:33S 36°51' E 174°47'0 0.0
2015-May-26 14:26S 36°51' E 174°47'0 0.0
2015-May-26 13:10S 36°51' E 174°47'4 6.3
2015-May-26 12:34S 36°47' E 174°49'1 0.6
2015-May-26 11:34S 36°47' E 174°49'1 0.7
2015-May-26 10:30S 36°47' E 174°48'1 1.4
2015-May-26 09:33S 36°46' E 174°49'5 4.6
2015-May-26 08:25S 36°51' E 174°47'0 0.0
2015-May-26 07:19S 36°51' E 174°47'0 0.0
2015-May-26 06:33S 36°51' E 174°47'0 0.0
2015-May-26 05:16S 36°51' E 174°47'0 0.0
2015-May-26 04:09S 36°51' E 174°47'4 5.3
2015-May-26 03:28S 36°47' E 174°49'4 4.1
2015-May-26 02:33S 36°51' E 174°47'4 4.1
2015-May-26 01:33S 36°47' E 174°48'1 1.4
2015-May-26 00:33S 36°48' E 174°48'3 2.8
2015-May-25 23:33S 36°51' E 174°47'0 0.0
2015-May-25 22:33S 36°51' E 174°47'1 1.0
2015-May-25 21:19S 36°51' E 174°48'1 0.6
2015-May-25 19:15S 36°51' E 174°47'0 0.0
2015-May-25 18:05S 36°51' E 174°47'0 0.0
2015-May-25 17:25S 36°51' E 174°47'0 0.0
2015-May-25 13:18S 36°51' E 174°47'0 0.0
2015-May-25 11:22S 36°51' E 174°47'0 0.0
2015-May-25 10:22S 36°51' E 174°47'4 2.0
2015-May-25 08:32S 36°47' E 174°49'0 0.2
2015-May-25 06:18S 36°48' E 174°48'1 0.3
2015-May-25 02:21S 36°48' E 174°50'3 1.1
2015-May-24 23:32S 36°51' E 174°47'0 0.0
2015-May-24 22:33S 36°51' E 174°47'0 0.0
2015-May-24 21:30S 36°51' E 174°47'0 0.0
2015-May-24 20:33S 36°51' E 174°47'8 7.9
2015-May-24 19:34S 36°44' E 174°51'3 3.3
2015-May-24 18:34S 36°47' E 174°49'5 4.5
2015-May-24 17:34S 36°51' E 174°47'4 0.7
2015-May-24 11:33S 36°46' E 174°49'4 4.4
2015-May-24 10:33S 36°51' E 174°47'0 0.0
2015-May-24 09:33S 36°51' E 174°47'0 0.0
2015-May-23 20:19S 36°50' E 174°47'0 0.1
2015-May-23 17:26S 36°51' E 174°47'1 0.1
2015-May-23 09:34S 36°50' E 174°48'6 5.9
2015-May-23 08:33S 36°45' E 174°50'1 1.1
2015-May-23 07:33S 36°44' E 174°50'8 7.0
2015-May-23 06:28S 36°51' E 174°47'5 0.5
2015-May-22 20:17S 36°46' E 174°49'0 0.1
2015-May-22 13:33S 36°46' E 174°49'1 0.6
2015-May-22 12:31S 36°46' E 174°50'2 0.9
2015-May-22 10:33S 36°48' E 174°49'1 1.4
2015-May-22 09:33S 36°49' E 174°49'3 2.5
2015-May-22 08:31S 36°51' E 174°47'0 0.0
2015-May-21 16:15S 36°51' E 174°47'0 0.0
2015-May-21 11:11S 36°51' E 174°47'2 3.4
2015-May-21 10:33S 36°50' E 174°49'2 2.1
2015-May-21 09:33S 36°51' E 174°47'0 0.0
2015-May-21 08:21S 36°51' E 174°47'0 0.3
2015-May-21 07:28S 36°50' E 174°47'0 0.0
2015-May-20 13:32S 36°51' E 174°47'0 0.0
2015-May-20 11:33S 36°51' E 174°47'0 0.0
2015-May-20 10:30S 36°51' E 174°47'0 0.0
2015-May-20 09:33S 36°51' E 174°47'0 0.0
2015-May-20 06:22S 36°51' E 174°47'0 0.0
2015-May-20 03:33S 36°51' E 174°47'0 0.0
2015-May-20 02:30S 36°51' E 174°47'0 0.0
2015-May-20 00:32S 36°51' E 174°47'0 0.0
2015-May-19 19:10S 36°51' E 174°47'3 1.1
2015-May-19 16:33S 36°48' E 174°49'2 0.2
2015-May-19 06:31S 36°46' E 174°49'5 4.4
2015-May-19 05:28S 36°51' E 174°47'5 2.5
2015-May-19 03:33S 36°46' E 174°49'5 2.3
2015-May-19 01:27S 36°51' E 174°47'0 0.0
2015-May-18 23:20S 36°51' E 174°47'0 0.0
2015-May-18 21:04S 36°51' E 174°47'0 0.1
2015-May-18 19:33S 36°51' E 174°47'0 0.0
2015-May-18 18:18S 36°51' E 174°47'5 7.4
2015-May-18 17:33S 36°46' E 174°50'5 1.0
2015-May-18 12:05S 36°51' E 174°47'3 5.6
2015-May-18 11:34S 36°48' E 174°49'3 2.1
2015-May-18 10:06S 36°51' E 174°47'1 1.4
2015-May-18 09:34S 36°50' E 174°48'3 2.8
2015-May-18 08:34S 36°48' E 174°49'3 3.3
2015-May-18 07:30S 36°51' E 174°47'2 2.4
2015-May-18 06:33S 36°49' E 174°49'2 1.8
2015-May-18 05:34S 36°47' E 174°49'3 0.8
2015-May-18 01:25S 36°50' E 174°47'0 0.0
2015-May-17 18:22S 36°51' E 174°47'0 0.0
2015-May-17 14:32S 36°51' E 174°47'0 0.0
2015-May-17 13:18S 36°51' E 174°47'0 0.0
2015-May-17 12:33S 36°51' E 174°47'0 0.0
2015-May-17 11:33S 36°51' E 174°47'0 0.0
2015-May-17 10:33S 36°51' E 174°47'  

Dump ship's entire track history